Time;durP1;ratioP1;P1;durP2;ratioP2;P2;SDS_P1;SDS_P2;PMS_P1;PMS_P2;Temp;Humidity;BMP_temperature;BMP_pressure;BME280_temperature;BME280_humidity;BME280_pressure;Samples;Min_cycle;Max_cycle;Signal;HPM_P1;HPM_P2
2022/07/03 00:02:14;;;;;;;14.50;8.50;;;;;;;;;;4999788;23;20038;-62
2022/07/03 00:04:40;;;;;;;15.82;9.00;;;;;;;;;;5030101;28;20045;-63
2022/07/03 00:07:06;;;;;;;14.70;8.30;;;;;;;;;;5030180;28;20021;-63
2022/07/03 00:09:32;;;;;;;15.73;8.65;;;;;;;;;;5029297;28;20367;-64
2022/07/03 00:11:58;;;;;;;14.85;8.35;;;;;;;;;;5030352;28;20026;-63
2022/07/03 00:14:24;;;;;;;16.50;8.95;;;;;;;;;;5030248;28;20477;-63
2022/07/03 00:16:50;;;;;;;16.45;8.40;;;;;;;;;;5033401;28;20091;-64
2022/07/03 00:19:16;;;;;;;15.63;8.93;;;;;;;;;;5033170;28;20064;-63
2022/07/03 00:22:08;;;;;;;16.85;8.50;;;;;;;;;;5033979;28;20025;-64
2022/07/03 00:24:41;;;;;;;17.30;8.93;;;;;;;;;;5029259;28;20082;-63
2022/07/03 00:27:08;;;;;;;15.55;8.40;;;;;;;;;;5033413;28;20018;-61
2022/07/03 00:29:37;;;;;;;16.08;8.75;;;;;;;;;;5033542;28;20053;-64
2022/07/03 00:32:04;;;;;;;15.77;8.10;;;;;;;;;;5033772;28;20389;-65
2022/07/03 00:34:30;;;;;;;15.43;8.30;;;;;;;;;;5015912;28;20516;-63
2022/07/03 00:36:57;;;;;;;15.07;8.27;;;;;;;;;;5033453;28;20021;-64
2022/07/03 00:39:24;;;;;;;16.65;8.30;;;;;;;;;;5015141;28;20125;-64
2022/07/03 00:41:59;;;;;;;16.67;8.77;;;;;;;;;;5033576;28;20037;-63
2022/07/03 00:44:26;;;;;;;15.82;8.75;;;;;;;;;;5015618;28;20026;-64
2022/07/03 00:46:52;;;;;;;15.90;9.10;;;;;;;;;;5015584;28;20077;-64
2022/07/03 00:49:19;;;;;;;14.85;8.15;;;;;;;;;;5032672;28;20104;-63
2022/07/03 00:51:51;;;;;;;15.35;8.70;;;;;;;;;;5033379;28;20402;-63
2022/07/03 00:54:18;;;;;;;17.40;9.20;;;;;;;;;;5033379;28;20030;-61
2022/07/03 00:56:47;;;;;;;16.33;8.45;;;;;;;;;;5033266;28;20084;-62
2022/07/03 00:59:13;;;;;;;;;;;;;;;;;;5015444;28;20111;-63
2022/07/03 01:01:39;;;;;;;14.73;8.20;;;;;;;;;;5015971;28;20569;-63
2022/07/03 01:04:05;;;;;;;15.88;8.38;;;;;;;;;;5033025;28;20403;-63
2022/07/03 01:06:34;;;;;;;14.75;8.20;;;;;;;;;;5033089;28;20500;-63
2022/07/03 01:09:00;;;;;;;;;;;;;;;;;;5015240;28;20029;-63
2022/07/03 01:11:35;;;;;;;15.88;8.80;;;;;;;;;;5033699;28;19905;-63
2022/07/03 01:14:05;;;;;;;16.65;8.80;;;;;;;;;;5033300;28;20036;-63
2022/07/03 01:16:35;;;;;;;16.83;8.75;;;;;;;;;;5033383;28;20031;-63
2022/07/03 01:19:10;;;;;;;17.25;9.18;;;;;;;;;;5032295;28;20397;-62
2022/07/03 01:21:46;;;;;;;15.23;8.50;;;;;;;;;;5032761;28;20097;-62
2022/07/03 01:24:31;;;;;;;16.55;9.13;;;;;;;;;;5032769;28;20033;-62
2022/07/03 01:27:00;;;;;;;16.92;9.45;;;;;;;;;;5032304;28;20025;-62
2022/07/03 01:29:31;;;;;;;19.63;9.48;;;;;;;;;;5032188;28;20028;-63
2022/07/03 01:31:57;;;;;;;17.30;8.77;;;;;;;;;;5032718;28;20029;-62
2022/07/03 01:34:26;;;;;;;16.80;9.23;;;;;;;;;;5032989;28;20478;-65
2022/07/03 01:36:52;;;;;;;;;;;;;;;;;;5032966;28;20025;-64
2022/07/03 01:39:18;;;;;;;16.48;8.48;;;;;;;;;;5031856;28;19912;-63
2022/07/03 01:41:48;;;;;;;19.77;9.38;;;;;;;;;;5014753;28;20037;-64
2022/07/03 01:44:14;;;;;;;16.35;8.80;;;;;;;;;;5032350;28;20106;-64
2022/07/03 01:46:45;;;;;;;14.98;8.60;;;;;;;;;;5032520;28;20029;-64
2022/07/03 01:49:13;;;;;;;15.50;8.93;;;;;;;;;;5014070;28;20040;-64
2022/07/03 01:51:39;;;;;;;15.98;9.15;;;;;;;;;;5032253;28;20064;-64
2022/07/03 01:54:06;;;;;;;16.50;9.02;;;;;;;;;;5031957;28;20482;-64
2022/07/03 01:56:33;;;;;;;17.25;9.10;;;;;;;;;;5032144;28;20481;-64
2022/07/03 01:58:59;;;;;;;18.40;10.13;;;;;;;;;;5013546;28;20551;-64
2022/07/03 02:01:30;;;;;;;16.23;9.25;;;;;;;;;;5014301;28;20079;-64
2022/07/03 02:03:59;;;;;;;16.05;9.23;;;;;;;;;;5031912;28;20083;-64
2022/07/03 02:06:54;;;;;;;17.30;8.95;;;;;;;;;;5031973;28;20025;-64
2022/07/03 02:09:24;;;;;;;18.63;8.93;;;;;;;;;;4993037;28;20076;-64
2022/07/03 02:11:51;;;;;;;15.82;8.43;;;;;;;;;;5031889;28;20446;-64
2022/07/03 02:14:19;;;;;;;17.15;8.60;;;;;;;;;;5031919;28;20025;-64
2022/07/03 02:16:51;;;;;;;15.98;8.82;;;;;;;;;;5031720;28;20120;-64
2022/07/03 02:19:18;;;;;;;17.10;9.73;;;;;;;;;;5031007;28;20040;-64
2022/07/03 02:21:51;;;;;;;15.95;8.77;;;;;;;;;;5031657;28;20022;-64
2022/07/03 02:24:22;;;;;;;17.90;9.63;;;;;;;;;;5031856;28;20036;-64
2022/07/03 02:27:02;;;;;;;17.35;9.48;;;;;;;;;;5031631;28;20021;-64
2022/07/03 02:29:43;;;;;;;18.10;9.82;;;;;;;;;;5029237;28;20116;-64
2022/07/03 02:32:12;;;;;;;16.08;9.88;;;;;;;;;;5031636;28;20030;-64
2022/07/03 02:34:38;;;;;;;15.60;9.30;;;;;;;;;;5031422;28;20074;-64
2022/07/03 02:37:11;;;;;;;15.57;8.65;;;;;;;;;;5031453;28;20052;-64
2022/07/03 02:39:46;;;;;;;15.57;8.98;;;;;;;;;;5030831;28;20436;-64
2022/07/03 02:42:23;;;;;;;18.48;9.23;;;;;;;;;;5031455;28;20035;-64
2022/07/03 02:44:51;;;;;;;16.90;9.00;;;;;;;;;;5031155;28;20029;-64
2022/07/03 02:47:17;;;;;;;15.90;9.15;;;;;;;;;;5030586;28;20049;-64
2022/07/03 02:50:04;;;;;;;15.57;9.18;;;;;;;;;;5031179;28;20041;-64
2022/07/03 02:52:33;;;;;;;16.40;9.15;;;;;;;;;;5013062;28;20060;-64
2022/07/03 02:55:11;;;;;;;17.08;9.57;;;;;;;;;;5031087;28;20390;-64
2022/07/03 02:57:39;;;;;;;17.13;9.77;;;;;;;;;;5030307;28;20473;-64
2022/07/03 03:00:06;;;;;;;17.85;9.30;;;;;;;;;;5031291;28;20116;-62
2022/07/03 03:02:50;;;;;;;18.58;9.52;;;;;;;;;;5030885;28;20026;-64
2022/07/03 03:05:21;;;;;;;16.70;9.63;;;;;;;;;;5030971;28;20041;-64
2022/07/03 03:07:49;;;;;;;16.60;9.00;;;;;;;;;;5030029;28;20504;-64
2022/07/03 03:10:19;;;;;;;18.08;9.63;;;;;;;;;;5030934;28;20445;-64
2022/07/03 03:12:46;;;;;;;17.02;9.13;;;;;;;;;;5030821;28;20029;-64
2022/07/03 03:15:13;;;;;;;17.20;8.88;;;;;;;;;;5030823;28;20489;-64
2022/07/03 03:17:43;;;;;;;15.88;9.35;;;;;;;;;;5030000;28;20079;-64
2022/07/03 03:20:13;;;;;;;18.17;9.85;;;;;;;;;;5030887;28;20382;-64
2022/07/03 03:22:58;;;;;;;18.50;9.50;;;;;;;;;;5030430;28;20029;-64
2022/07/03 03:25:24;;;;;;;16.00;9.40;;;;;;;;;;5030378;28;20076;-64
2022/07/03 03:27:50;;;;;;;17.30;9.35;;;;;;;;;;5030585;28;20021;-65
2022/07/03 03:30:16;;;;;;;16.20;9.40;;;;;;;;;;5031841;28;20021;-64
2022/07/03 03:32:42;;;;;;;16.92;10.10;;;;;;;;;;5031487;28;20021;-63
2022/07/03 03:35:09;;;;;;;16.98;9.57;;;;;;;;;;5031129;28;20424;-64
2022/07/03 03:37:35;;;;;;;18.70;9.82;;;;;;;;;;5031113;28;20025;-64
2022/07/03 03:40:03;;;;;;;16.88;9.57;;;;;;;;;;5030583;28;20036;-63
2022/07/03 03:42:29;;;;;;;19.70;9.98;;;;;;;;;;5030715;28;20036;-63
2022/07/03 03:44:55;;;;;;;18.98;9.80;;;;;;;;;;5030465;28;20169;-63
2022/07/03 03:47:21;;;;;;;17.33;10.20;;;;;;;;;;5029757;28;20033;-63
2022/07/03 03:49:47;;;;;;;17.98;9.82;;;;;;;;;;5032255;28;20151;-63
2022/07/03 03:52:13;;;;;;;16.48;9.60;;;;;;;;;;5034537;28;20020;-63
2022/07/03 03:54:39;;;;;;;16.60;9.77;;;;;;;;;;5034745;28;20034;-63
2022/07/03 03:57:21;;;;;;;17.95;10.18;;;;;;;;;;5034505;28;20033;-63
2022/07/03 03:59:47;;;;;;;19.80;10.43;;;;;;;;;;5034364;28;20033;-63
2022/07/03 04:02:14;;;;;;;18.55;10.45;;;;;;;;;;5034359;28;20021;-63
2022/07/03 04:04:40;;;;;;;16.00;9.80;;;;;;;;;;5034490;28;20093;-63
2022/07/03 04:07:06;;;;;;;17.40;10.13;;;;;;;;;;5034159;28;20026;-64
2022/07/03 04:09:32;;;;;;;17.52;10.65;;;;;;;;;;5015698;28;20029;-64
2022/07/03 04:11:58;;;;;;;17.65;10.23;;;;;;;;;;5034273;28;20539;-64
2022/07/03 04:14:24;;;;;;;19.90;11.50;;;;;;;;;;5016288;28;20132;-64
2022/07/03 04:16:50;;;;;;;19.77;10.52;;;;;;;;;;5033985;28;20073;-63
2022/07/03 04:19:16;;;;;;;17.92;11.27;;;;;;;;;;5033365;28;20473;-64
2022/07/03 04:21:42;;;;;;;16.75;10.18;;;;;;;;;;5016142;28;20121;-63
2022/07/03 04:24:08;;;;;;;18.02;10.20;;;;;;;;;;5033850;28;20119;-63
2022/07/03 04:26:34;;;;;;;17.23;10.23;;;;;;;;;;5034127;28;20102;-63
2022/07/03 04:29:00;;;;;;;17.63;10.05;;;;;;;;;;5015220;28;20323;-64
2022/07/03 04:31:26;;;;;;;16.13;9.85;;;;;;;;;;5033563;28;20413;-64
2022/07/03 04:33:52;;;;;;;16.70;10.43;;;;;;;;;;5033596;28;20032;-64
2022/07/03 04:36:18;;;;;;;19.02;10.93;;;;;;;;;;5033650;28;20022;-64
2022/07/03 04:38:44;;;;;;;16.83;10.90;;;;;;;;;;5032829;28;20056;-65
2022/07/03 04:41:10;;;;;;;18.50;10.00;;;;;;;;;;5033530;28;20156;-63
2022/07/03 04:43:36;;;;;;;16.30;10.50;;;;;;;;;;5033456;28;20151;-64
2022/07/03 04:46:03;;;;;;;16.75;10.18;;;;;;;;;;5015724;28;20057;-63
2022/07/03 04:48:29;;;;;;;17.15;10.10;;;;;;;;;;5014863;28;20055;-63
2022/07/03 04:50:55;;;;;;;16.63;9.63;;;;;;;;;;5033511;28;20393;-66
2022/07/03 04:53:21;;;;;;;19.73;10.77;;;;;;;;;;5033285;28;20108;-63
2022/07/03 04:55:47;;;;;;;17.85;10.20;;;;;;;;;;5033325;28;20048;-64
2022/07/03 04:58:13;;;;;;;18.50;10.38;;;;;;;;;;5032509;28;20025;-63
2022/07/03 05:00:43;;;;;;;16.25;10.50;;;;;;;;;;5014911;28;20021;-63
2022/07/03 05:03:09;;;;;;;17.20;10.63;;;;;;;;;;5033040;28;20172;-63
2022/07/03 05:05:35;;;;;;;17.42;10.20;;;;;;;;;;5032789;28;20036;-63
2022/07/03 05:08:01;;;;;;;17.50;10.65;;;;;;;;;;5032445;28;20025;-63
2022/07/03 05:10:27;;;;;;;16.90;10.52;;;;;;;;;;5033038;28;20022;-63
2022/07/03 05:12:53;;;;;;;18.50;10.98;;;;;;;;;;5032881;28;20371;-63
2022/07/03 05:15:19;;;;;;;15.55;9.82;;;;;;;;;;5032951;28;20021;-64
2022/07/03 05:17:46;;;;;;;15.45;9.85;;;;;;;;;;5032240;28;20032;-64
2022/07/03 05:20:24;;;;;;;19.48;10.45;;;;;;;;;;5033137;28;20427;-64
2022/07/03 05:22:53;;;;;;;17.98;10.60;;;;;;;;;;5032792;28;20448;-65
2022/07/03 05:25:20;;;;;;;16.75;10.43;;;;;;;;;;5032735;28;20676;-64
2022/07/03 05:27:46;;;;;;;17.38;10.70;;;;;;;;;;5032411;28;20443;-65
2022/07/03 05:30:13;;;;;;;18.30;10.77;;;;;;;;;;5033015;28;20099;-64
2022/07/03 05:32:39;;;;;;;16.75;10.80;;;;;;;;;;5032688;28;20109;-64
2022/07/03 05:35:05;;;;;;;17.35;10.75;;;;;;;;;;5032579;28;20040;-64
2022/07/03 05:37:31;;;;;;;21.60;11.43;;;;;;;;;;5031939;28;20049;-64
2022/07/03 05:39:57;;;;;;;16.38;10.45;;;;;;;;;;5032514;28;20027;-65
2022/07/03 05:42:23;;;;;;;16.00;10.55;;;;;;;;;;5032539;28;20109;-64
2022/07/03 05:44:49;;;;;;;18.08;10.32;;;;;;;;;;5032425;28;20029;-63
2022/07/03 05:47:15;;;;;;;17.25;10.57;;;;;;;;;;5031869;28;20033;-64
2022/07/03 05:49:41;;;;;;;19.42;11.40;;;;;;;;;;5032596;28;20100;-63
2022/07/03 05:52:07;;;;;;;17.50;10.95;;;;;;;;;;5014824;28;20120;-63
2022/07/03 05:54:33;;;;;;;17.67;10.50;;;;;;;;;;5032609;28;20026;-63
2022/07/03 05:56:59;;;;;;;16.67;10.35;;;;;;;;;;5032662;28;20056;-63
2022/07/03 05:59:25;;;;;;;16.27;10.70;;;;;;;;;;5031968;28;20025;-64
2022/07/03 06:01:51;;;;;;;16.17;10.55;;;;;;;;;;5032413;28;20367;-64
2022/07/03 06:04:17;;;;;;;16.38;10.85;;;;;;;;;;5069283;23;20045;-65
2022/07/03 06:06:43;;;;;;;16.65;11.05;;;;;;;;;;5053291;28;20103;-65
2022/07/03 06:09:09;;;;;;;19.05;10.52;;;;;;;;;;5052430;28;20056;-65
2022/07/03 06:11:35;;;;;;;17.00;11.23;;;;;;;;;;5035262;28;20024;-66
2022/07/03 06:14:01;;;;;;;17.30;10.80;;;;;;;;;;5051984;28;20025;-65
2022/07/03 06:16:27;;;;;;;15.35;9.88;;;;;;;;;;5052906;28;20101;-65
2022/07/03 06:18:53;;;;;;;16.48;10.02;;;;;;;;;;5052252;28;20492;-65
2022/07/03 06:21:19;;;;;;;16.13;10.40;;;;;;;;;;5052876;28;20056;-65
2022/07/03 06:23:45;;;;;;;16.77;11.10;;;;;;;;;;5052730;28;20035;-65
2022/07/03 06:26:11;;;;;;;16.90;10.77;;;;;;;;;;5035100;28;20017;-65
2022/07/03 06:28:37;;;;;;;17.48;10.65;;;;;;;;;;5052222;28;20075;-65
2022/07/03 06:31:03;;;;;;;17.02;10.65;;;;;;;;;;5052779;28;20543;-68
2022/07/03 06:33:29;;;;;;;15.85;10.40;;;;;;;;;;5052649;28;20045;-65
2022/07/03 06:35:55;;;;;;;17.85;9.93;;;;;;;;;;5052895;28;20025;-64
2022/07/03 06:38:21;;;;;;;17.60;10.40;;;;;;;;;;5052042;28;20025;-65
2022/07/03 06:40:47;;;;;;;17.05;9.40;;;;;;;;;;5052904;28;20025;-65
2022/07/03 06:43:13;;;;;;;16.95;10.02;;;;;;;;;;5052946;28;20032;-65
2022/07/03 06:45:39;;;;;;;15.70;9.88;;;;;;;;;;5034556;28;20154;-65
2022/07/03 06:48:05;;;;;;;15.90;10.05;;;;;;;;;;5051917;28;20066;-65
2022/07/03 06:50:31;;;;;;;15.52;9.98;;;;;;;;;;5052603;28;20025;-65
2022/07/03 06:52:57;;;;;;;17.75;10.10;;;;;;;;;;5052694;28;20074;-65
2022/07/03 06:55:23;;;;;;;16.30;10.23;;;;;;;;;;5052453;28;20021;-64
2022/07/03 06:57:49;;;;;;;17.90;10.65;;;;;;;;;;5033912;28;20032;-64
2022/07/03 07:00:15;;;;;;;17.65;10.30;;;;;;;;;;5052845;28;20056;-64
2022/07/03 07:02:41;;;;;;;16.55;10.35;;;;;;;;;;5052105;28;20070;-64
2022/07/03 07:05:07;;;;;;;15.50;9.98;;;;;;;;;;5052399;28;20025;-65
2022/07/03 07:07:33;;;;;;;17.45;10.48;;;;;;;;;;5051603;28;20124;-65
2022/07/03 07:09:59;;;;;;;16.45;9.90;;;;;;;;;;5052555;28;20147;-65
2022/07/03 07:12:25;;;;;;;17.45;10.40;;;;;;;;;;5034276;28;20125;-65
2022/07/03 07:14:52;;;;;;;23.17;10.30;;;;;;;;;;5052318;28;20021;-65
2022/07/03 07:17:18;;;;;;;18.10;11.02;;;;;;;;;;5051559;28;20035;-64
2022/07/03 07:19:44;;;;;;;16.98;10.20;;;;;;;;;;5052048;28;20020;-65
2022/07/03 07:22:09;;;;;;;16.60;9.90;;;;;;;;;;5052189;28;20021;-65
2022/07/03 07:24:35;;;;;;;15.82;10.52;;;;;;;;;;5033566;28;20033;-65
2022/07/03 07:27:01;;;;;;;15.50;10.32;;;;;;;;;;5052127;28;20025;-65
2022/07/03 07:29:28;;;;;;;17.15;10.05;;;;;;;;;;5051223;28;20024;-64
2022/07/03 07:31:54;;;;;;;16.20;10.07;;;;;;;;;;5051789;28;20028;-65
2022/07/03 07:34:20;;;;;;;16.85;10.07;;;;;;;;;;5051566;28;20469;-65
2022/07/03 07:36:46;;;;;;;15.98;9.75;;;;;;;;;;5051866;28;20083;-65
2022/07/03 07:39:12;;;;;;;18.40;10.48;;;;;;;;;;5051143;28;20465;-64
2022/07/03 07:41:38;;;;;;;16.85;9.85;;;;;;;;;;5051814;28;20500;-65
2022/07/03 07:44:05;;;;;;;16.27;10.13;;;;;;;;;;5051847;28;20471;-65
2022/07/03 07:46:31;;;;;;;17.20;10.20;;;;;;;;;;5052123;28;20032;-64
2022/07/03 07:48:57;;;;;;;15.77;10.20;;;;;;;;;;5051132;28;20027;-65
2022/07/03 07:51:23;;;;;;;16.02;10.20;;;;;;;;;;5051835;28;20112;-65
2022/07/03 07:53:52;;;;;;;17.35;10.50;;;;;;;;;;5033735;28;20108;-65
2022/07/03 07:56:18;;;;;;;17.38;9.95;;;;;;;;;;5051668;28;20025;-64
2022/07/03 07:58:44;;;;;;;16.60;9.93;;;;;;;;;;5050828;28;20021;-65
2022/07/03 08:06:39;;;;;;;15.30;9.50;;;;;;;;;;5051938;28;20023;-64
2022/07/03 08:09:05;;;;;;;15.10;9.63;;;;;;;;;;5032972;28;20021;-64
2022/07/03 08:11:31;;;;;;;18.55;10.20;;;;;;;;;;5051492;28;20021;-66
2022/07/03 08:13:57;;;;;;;15.52;9.40;;;;;;;;;;5051380;28;20060;-65
2022/07/03 08:16:23;;;;;;;15.05;9.52;;;;;;;;;;5033823;28;20055;-66
2022/07/03 08:18:49;;;;;;;15.18;9.70;;;;;;;;;;5050802;28;20097;-65
2022/07/03 08:21:15;;;;;;;17.05;9.40;;;;;;;;;;5051108;28;20461;-65
2022/07/03 08:23:41;;;;;;;17.00;8.95;;;;;;;;;;5051328;28;20029;-65
2022/07/03 08:26:07;;;;;;;16.92;9.70;;;;;;;;;;5051279;28;20066;-65
2022/07/03 08:28:33;;;;;;;17.02;9.80;;;;;;;;;;5050529;28;20450;-65
2022/07/03 08:30:59;;;;;;;16.25;9.25;;;;;;;;;;5051427;28;20027;-65
2022/07/03 08:33:25;;;;;;;17.55;10.05;;;;;;;;;;5051142;28;20031;-65
2022/07/03 08:35:51;;;;;;;16.67;8.90;;;;;;;;;;5051534;28;20025;-65
2022/07/03 08:38:17;;;;;;;16.23;9.07;;;;;;;;;;5054240;28;20032;-65
2022/07/03 08:40:44;;;;;;;15.48;9.05;;;;;;;;;;5054649;28;20021;-64
2022/07/03 08:43:10;;;;;;;16.80;9.60;;;;;;;;;;5036890;28;20021;-65
2022/07/03 08:45:37;;;;;;;16.45;9.75;;;;;;;;;;5036662;28;20025;-65
2022/07/03 08:48:04;;;;;;;17.15;9.80;;;;;;;;;;5053893;28;20032;-61
2022/07/03 08:50:33;;;;;;;17.20;9.55;;;;;;;;;;5054587;28;20052;-61
2022/07/03 08:53:00;;;;;;;17.98;8.93;;;;;;;;;;5054564;28;20086;-62
2022/07/03 08:55:26;;;;;;;15.45;9.25;;;;;;;;;;5054385;28;20029;-61
2022/07/03 08:57:55;;;;;;;15.93;9.25;;;;;;;;;;5054020;28;20039;-63
2022/07/03 09:00:21;;;;;;;15.65;8.90;;;;;;;;;;5054398;28;20052;-60
2022/07/03 09:02:48;;;;;;;16.27;9.18;;;;;;;;;;5036404;28;20436;-62
2022/07/03 09:05:15;;;;;;;19.40;9.88;;;;;;;;;;5054535;28;20029;-62
2022/07/03 09:07:43;;;;;;;16.98;9.10;;;;;;;;;;5053651;28;20414;-62
2022/07/03 09:10:09;;;;;;;17.70;9.73;;;;;;;;;;5054184;28;20025;-61
2022/07/03 09:12:36;;;;;;;15.55;8.70;;;;;;;;;;5054274;28;20029;-54
2022/07/03 09:15:03;;;;;;;15.35;9.05;;;;;;;;;;5054476;28;20079;-57
2022/07/03 09:17:29;;;;;;;18.20;10.25;;;;;;;;;;5053563;28;20504;-50
2022/07/03 09:19:58;;;;;;;16.70;10.00;;;;;;;;;;5054236;28;20025;-55
2022/07/03 09:22:29;;;;;;;19.80;10.75;;;;;;;;;;5052447;28;20040;-57
2022/07/03 09:25:03;;;;;;;16.83;9.30;;;;;;;;;;5044462;28;20028;-52
2022/07/03 09:27:29;;;;;;;18.83;9.38;;;;;;;;;;5041305;28;20022;-59
2022/07/03 09:30:01;;;;;;;19.30;9.30;;;;;;;;;;5039168;28;20079;-57
2022/07/03 09:32:41;;;;;;;15.10;8.98;;;;;;;;;;5050240;28;20020;-58
2022/07/03 09:35:10;;;;;;;15.88;9.13;;;;;;;;;;5043137;28;20029;-54
2022/07/03 09:37:36;;;;;;;16.50;9.80;;;;;;;;;;5023547;28;20024;-59
2022/07/03 09:40:03;;;;;;;16.85;9.57;;;;;;;;;;5041967;28;20037;-59
2022/07/03 09:42:30;;;;;;;16.38;9.85;;;;;;;;;;5044998;28;20028;-57
2022/07/03 09:44:56;;;;;;;17.83;9.65;;;;;;;;;;5053513;28;20025;-59
2022/07/03 09:47:23;;;;;;;17.83;10.10;;;;;;;;;;5052487;28;20481;-56
2022/07/03 09:49:52;;;;;;;15.38;9.80;;;;;;;;;;5049272;28;20044;-58
2022/07/03 09:52:37;;;;;;;16.52;10.10;;;;;;;;;;5034003;28;20060;-56
2022/07/03 09:55:08;;;;;;;16.88;9.88;;;;;;;;;;5033253;28;20029;-57
2022/07/03 09:57:35;;;;;;;15.73;9.85;;;;;;;;;;5014991;28;20056;-56
2022/07/03 10:00:17;;;;;;;17.27;9.60;;;;;;;;;;5015626;28;20433;-59
2022/07/03 10:02:59;;;;;;;15.65;9.40;;;;;;;;;;5033374;28;20029;-59
2022/07/03 10:05:36;;;;;;;16.58;9.85;;;;;;;;;;5033130;28;20087;-57
2022/07/03 10:08:12;;;;;;;16.05;9.50;;;;;;;;;;5032678;28;20108;-60
2022/07/03 10:10:40;;;;;;;15.73;9.65;;;;;;;;;;5033063;28;20498;-58
2022/07/03 10:13:06;;;;;;;17.53;10.43;;;;;;;;;;5033366;28;20470;-57
2022/07/03 10:15:36;;;;;;;16.88;10.32;;;;;;;;;;5032880;28;20040;-56
2022/07/03 10:18:04;;;;;;;16.02;9.68;;;;;;;;;;5032163;28;20389;-57
2022/07/03 10:20:34;;;;;;;17.15;9.90;;;;;;;;;;5032968;28;20105;-53
2022/07/03 10:23:00;;;;;;;15.57;9.68;;;;;;;;;;5033064;28;20539;-56
2022/07/03 10:25:26;;;;;;;15.80;9.98;;;;;;;;;;5032712;28;20029;-58
2022/07/03 10:27:52;;;;;;;17.52;10.10;;;;;;;;;;5032507;28;20116;-58
2022/07/03 10:30:20;;;;;;;15.25;10.00;;;;;;;;;;5034144;28;20029;-57
2022/07/03 10:32:47;;;;;;;17.80;10.10;;;;;;;;;;5034459;28;20473;-58
2022/07/03 10:35:17;;;;;;;15.27;10.07;;;;;;;;;;5034422;28;20033;-58
2022/07/03 10:37:50;;;;;;;16.85;10.70;;;;;;;;;;5033233;28;20463;-58
2022/07/03 10:46:16;;;;;;;16.80;10.10;;;;;;;;;;5034284;28;20094;-59
2022/07/03 10:48:51;;;;;;;16.83;10.23;;;;;;;;;;5032673;28;20479;-57
2022/07/03 10:51:17;;;;;;;16.88;10.30;;;;;;;;;;5032765;28;20025;-58
2022/07/03 10:53:46;;;;;;;15.95;9.85;;;;;;;;;;5032507;28;20066;-55
2022/07/03 10:56:12;;;;;;;16.17;10.10;;;;;;;;;;5032749;28;20029;-57
2022/07/03 10:58:57;;;;;;;18.02;10.10;;;;;;;;;;5031237;28;20109;-57
2022/07/03 11:01:29;;;;;;;17.35;10.68;;;;;;;;;;5032472;28;20494;-59
2022/07/03 11:03:59;;;;;;;17.00;9.95;;;;;;;;;;5032645;28;20029;-57
2022/07/03 11:06:43;;;;;;;17.83;10.05;;;;;;;;;;5032417;28;20045;-57
2022/07/03 11:09:09;;;;;;;15.07;10.02;;;;;;;;;;5031517;28;20371;-59
2022/07/03 11:11:55;;;;;;;16.02;9.70;;;;;;;;;;5032293;28;20520;-55
2022/07/03 11:14:21;;;;;;;17.15;10.10;;;;;;;;;;5032291;28;20338;-58
2022/07/03 11:16:47;;;;;;;17.00;10.50;;;;;;;;;;5032031;28;20119;-56
2022/07/03 11:19:14;;;;;;;15.82;9.70;;;;;;;;;;5031296;28;20044;-57
2022/07/03 11:21:43;;;;;;;15.23;9.70;;;;;;;;;;5032159;28;20044;-59
2022/07/03 11:24:09;;;;;;;17.02;10.75;;;;;;;;;;5032000;28;20432;-57
2022/07/03 11:26:35;;;;;;;17.10;10.20;;;;;;;;;;5014290;28;20021;-58
2022/07/03 11:29:01;;;;;;;17.45;10.43;;;;;;;;;;5013636;28;20021;-58
2022/07/03 11:31:27;;;;;;;16.63;9.95;;;;;;;;;;5014462;28;20398;-59
2022/07/03 11:33:57;;;;;;;17.02;10.68;;;;;;;;;;5032263;28;20025;-58
2022/07/03 11:36:26;;;;;;;17.92;10.23;;;;;;;;;;5032249;28;20040;-59
2022/07/03 11:38:55;;;;;;;18.95;10.18;;;;;;;;;;5031051;28;20029;-58
2022/07/03 11:41:22;;;;;;;15.43;9.60;;;;;;;;;;5014470;28;20021;-58
2022/07/03 11:43:48;;;;;;;15.80;10.05;;;;;;;;;;5031621;28;20022;-59
2022/07/03 11:46:18;;;;;;;15.05;9.45;;;;;;;;;;5031685;28;20044;-57
2022/07/03 11:48:44;;;;;;;16.70;10.45;;;;;;;;;;5031238;28;20109;-59
2022/07/03 11:51:10;;;;;;;18.42;10.20;;;;;;;;;;5031717;28;20026;-59
2022/07/03 11:53:37;;;;;;;16.17;9.43;;;;;;;;;;5031972;28;20068;-56
2022/07/03 11:56:04;;;;;;;16.80;10.07;;;;;;;;;;5031941;28;20428;-60
2022/07/03 11:58:56;;;;;;;17.95;10.73;;;;;;;;;;5031118;28;20025;-57
2022/07/03 12:01:22;;;;;;;16.10;9.57;;;;;;;;;;5029769;28;20128;-60
2022/07/03 12:03:51;;;;;;;16.88;9.77;;;;;;;;;;5055068;22;20359;-63
2022/07/03 12:06:18;;;;;;;14.57;9.18;;;;;;;;;;4993633;28;20097;-60
2022/07/03 12:08:47;;;;;;;15.95;9.63;;;;;;;;;;5009683;28;20458;-65
2022/07/03 12:11:14;;;;;;;16.60;9.40;;;;;;;;;;4665597;28;10000630;-63
2022/07/03 12:13:40;;;;;;;16.88;9.00;;;;;;;;;;5028008;28;20474;-63
2022/07/03 12:16:08;;;;;;;17.48;9.00;;;;;;;;;;5011784;28;20514;-64
2022/07/03 12:18:44;;;;;;;16.85;8.98;;;;;;;;;;5018597;28;20021;-64
2022/07/03 12:21:10;;;;;;;16.08;9.00;;;;;;;;;;5030655;28;20106;-64
2022/07/03 12:23:45;;;;;;;15.98;9.30;;;;;;;;;;5030897;28;20044;-64
2022/07/03 12:26:11;;;;;;;15.63;8.90;;;;;;;;;;5030039;28;20120;-66
2022/07/03 12:28:38;;;;;;;15.65;9.40;;;;;;;;;;5013721;28;20030;-65
2022/07/03 12:31:04;;;;;;;15.32;8.93;;;;;;;;;;5021363;28;20112;-65
2022/07/03 12:33:34;;;;;;;16.88;9.10;;;;;;;;;;5018799;28;20021;-66
2022/07/03 12:36:07;;;;;;;15.38;9.32;;;;;;;;;;5003987;28;20092;-66
2022/07/03 12:38:33;;;;;;;15.57;9.27;;;;;;;;;;5017900;28;20025;-66
2022/07/03 12:41:17;;;;;;;17.20;9.73;;;;;;;;;;5021041;28;20022;-65
2022/07/03 12:43:46;;;;;;;16.67;9.38;;;;;;;;;;5020253;28;20534;-66
2022/07/03 12:46:17;;;;;;;16.15;9.52;;;;;;;;;;5018580;28;20026;-65
2022/07/03 12:48:51;;;;;;;15.40;9.40;;;;;;;;;;5018027;28;20059;-65
2022/07/03 12:51:41;;;;;;;15.68;8.55;;;;;;;;;;4756707;28;10001211;-64
2022/07/03 12:54:07;;;;;;;16.02;9.15;;;;;;;;;;4989696;28;20287;-66
2022/07/03 12:56:34;;;;;;;15.25;8.70;;;;;;;;;;4991203;28;20529;-67
2022/07/03 12:59:18;;;;;;;16.88;9.32;;;;;;;;;;4990422;28;20513;-64
2022/07/03 13:02:00;;;;;;;14.32;8.88;;;;;;;;;;4991082;28;20038;-65
2022/07/03 13:04:38;;;;;;;15.13;9.40;;;;;;;;;;4973412;28;20026;-67
2022/07/03 13:07:08;;;;;;;15.48;9.20;;;;;;;;;;4992030;28;20029;-65
2022/07/03 13:09:35;;;;;;;14.93;8.93;;;;;;;;;;4992747;28;20022;-64
2022/07/03 13:12:02;;;;;;;15.57;9.30;;;;;;;;;;5008914;28;20105;-65
2022/07/03 13:14:28;;;;;;;15.10;9.48;;;;;;;;;;4995793;28;20113;-64
2022/07/03 13:16:55;;;;;;;15.63;9.13;;;;;;;;;;5013698;28;20034;-65
2022/07/03 13:19:25;;;;;;;16.23;9.23;;;;;;;;;;5013606;28;20037;-64
2022/07/03 13:21:52;;;;;;;15.55;8.90;;;;;;;;;;5012644;28;20121;-62
2022/07/03 13:24:18;;;;;;;16.37;9.10;;;;;;;;;;5013737;28;20499;-64
2022/07/03 13:26:45;;;;;;;15.57;8.80;;;;;;;;;;5013148;28;20021;-64
2022/07/03 13:29:11;;;;;;;14.95;8.27;;;;;;;;;;5012522;28;20033;-64
2022/07/03 13:31:37;;;;;;;14.40;8.43;;;;;;;;;;5013048;28;20014;-64
2022/07/03 13:34:03;;;;;;;16.55;8.65;;;;;;;;;;5017501;28;20028;-60
2022/07/03 13:36:30;;;;;;;17.73;9.50;;;;;;;;;;5028433;28;20022;-63
2022/07/03 13:38:56;;;;;;;15.27;9.02;;;;;;;;;;5015671;28;20022;-63
2022/07/03 13:41:22;;;;;;;15.00;9.30;;;;;;;;;;5016518;28;20044;-64
2022/07/03 13:43:49;;;;;;;15.48;9.27;;;;;;;;;;5033797;28;20025;-65
2022/07/03 13:46:16;;;;;;;16.00;9.30;;;;;;;;;;5017549;28;20109;-66
2022/07/03 13:48:42;;;;;;;15.00;9.30;;;;;;;;;;5013567;28;20030;-62
2022/07/03 13:51:08;;;;;;;14.63;9.25;;;;;;;;;;5013482;28;20026;-60
2022/07/03 13:53:34;;;;;;;15.55;9.35;;;;;;;;;;5012763;28;20048;-63
2022/07/03 13:56:00;;;;;;;14.15;9.40;;;;;;;;;;5012468;28;20029;-61
2022/07/03 13:58:26;;;;;;;15.00;9.23;;;;;;;;;;5011586;28;20109;-63
2022/07/03 14:00:52;;;;;;;15.05;9.32;;;;;;;;;;5011970;28;20033;-62
2022/07/03 14:03:19;;;;;;;15.73;9.40;;;;;;;;;;5011962;28;20022;-62
2022/07/03 14:05:45;;;;;;;14.40;9.00;;;;;;;;;;5011983;28;20026;-61
2022/07/03 14:08:11;;;;;;;14.65;9.43;;;;;;;;;;5011186;28;20079;-62
2022/07/03 14:10:37;;;;;;;15.73;9.60;;;;;;;;;;5011630;28;20036;-61
2022/07/03 14:13:03;;;;;;;17.42;9.55;;;;;;;;;;4994112;28;20076;-62
2022/07/03 14:15:29;;;;;;;19.55;9.82;;;;;;;;;;5012042;28;20103;-62
2022/07/03 14:17:59;;;;;;;14.93;9.73;;;;;;;;;;5011102;28;20033;-63
2022/07/03 14:20:25;;;;;;;15.45;9.65;;;;;;;;;;5011923;28;20032;-61
2022/07/03 14:22:51;;;;;;;15.27;9.70;;;;;;;;;;5011709;28;20481;-62
2022/07/03 14:25:17;;;;;;;17.75;10.15;;;;;;;;;;5011403;28;20029;-61
2022/07/03 14:33:13;;;;;;;16.30;9.32;;;;;;;;;;5010689;28;20076;-60
2022/07/03 14:35:39;;;;;;;17.58;9.50;;;;;;;;;;4284377;28;10000655;-61
2022/07/03 14:38:05;;;;;;;18.45;9.20;;;;;;;;;;4988776;28;20035;-62
2022/07/03 14:40:31;;;;;;;15.38;9.30;;;;;;;;;;4989018;28;20030;-61
2022/07/03 14:42:57;;;;;;;14.43;9.10;;;;;;;;;;4988824;28;20023;-63
2022/07/03 14:45:23;;;;;;;15.35;9.80;;;;;;;;;;4987990;28;20483;-63
2022/07/03 14:47:49;;;;;;;14.45;9.30;;;;;;;;;;4987923;28;20081;-60
2022/07/03 14:50:15;;;;;;;15.68;8.98;;;;;;;;;;4988316;28;20018;-62